Time;durP1;ratioP1;P1;durP2;ratioP2;P2;SDS_P1;SDS_P2;PMS_P1;PMS_P2;Temp;Humidity;BMP_temperature;BMP_pressure;BME280_temperature;BME280_humidity;BME280_pressure;Samples;Min_cycle;Max_cycle;Signal;HPM_P1;HPM_P2
2024/03/31 00:00:30;;;;;;;;;;;20.40;43.40;;;;;;1605719;72;1944;-69
2024/03/31 00:02:32;;;;;;;;;;;20.30;43.40;;;;;;1608211;72;1691;-68
2024/03/31 00:04:35;;;;;;;;;;;20.40;43.40;;;;;;1605139;72;660;-68
2024/03/31 00:06:37;;;;;;;;;;;20.30;43.50;;;;;;1614567;72;1132;-68
2024/03/31 00:08:39;;;;;;;;;;;20.30;43.50;;;;;;1613328;72;717;-71
2024/03/31 00:10:41;;;;;;;;;;;20.30;43.60;;;;;;1602370;73;1543;-69
2024/03/31 00:12:44;;;;;;;;;;;20.40;43.60;;;;;;1603697;73;723;-70
2024/03/31 00:14:46;;;;;;;;;;;20.30;43.60;;;;;;1604618;73;824;-69
2024/03/31 00:16:47;;;;;;;;;;;20.30;43.60;;;;;;1605783;73;1154;-67
2024/03/31 00:18:49;;;;;;;;;;;20.30;43.60;;;;;;1614665;73;644;-69
2024/03/31 00:20:54;;;;;;;;;;;20.30;43.60;;;;;;1606678;73;668;-70
2024/03/31 00:22:56;;;;;;;;;;;20.30;43.70;;;;;;1609582;73;643;-70
2024/03/31 00:24:58;;;;;;;;;;;20.30;43.70;;;;;;1613301;73;1644;-68
2024/03/31 00:27:00;;;;;;;;;;;20.30;43.70;;;;;;1603938;72;1111;-71
2024/03/31 00:29:02;;;;;;;;;;;20.30;43.70;;;;;;1607512;72;679;-69
2024/03/31 00:31:04;;;;;;;;;;;20.30;43.70;;;;;;1602619;72;584;-68
2024/03/31 00:33:06;;;;;;;;;;;20.30;43.80;;;;;;1604936;73;681;-68
2024/03/31 00:35:08;;;;;;;;;;;20.30;43.80;;;;;;1606484;73;679;-68
2024/03/31 00:37:09;;;;;;;;;;;20.30;43.80;;;;;;1612102;73;1258;-67
2024/03/31 00:39:11;;;;;;;;;;;20.30;43.80;;;;;;1612764;72;1931;-67
2024/03/31 00:41:13;;;;;;;;;;;20.40;43.80;;;;;;1607926;72;702;-69
2024/03/31 00:43:15;;;;;;;;;;;20.30;43.90;;;;;;1608867;73;811;-70
2024/03/31 00:45:17;;;;;;;;;;;20.30;43.90;;;;;;1614269;72;816;-67
2024/03/31 00:47:19;;;;;;;;;;;20.30;43.90;;;;;;1618005;72;1104;-68
2024/03/31 00:49:21;;;;;;;;;;;20.40;43.90;;;;;;1610929;73;660;-68
2024/03/31 00:51:23;;;;;;;;;;;20.40;44.00;;;;;;1610268;73;643;-68
2024/03/31 00:53:25;;;;;;;;;;;20.30;44.00;;;;;;1605016;73;1445;-68
2024/03/31 00:55:26;;;;;;;;;;;20.30;44.10;;;;;;1614041;72;712;-69
2024/03/31 00:57:28;;;;;;;;;;;20.30;44.10;;;;;;1604177;72;1116;-69
2024/03/31 00:59:30;;;;;;;;;;;20.30;44.10;;;;;;1606287;73;1939;-71
2024/03/31 01:01:32;;;;;;;;;;;20.30;44.10;;;;;;1612359;72;800;-70
2024/03/31 01:03:34;;;;;;;;;;;20.40;44.10;;;;;;1606612;73;913;-69
2024/03/31 01:05:36;;;;;;;;;;;20.30;44.20;;;;;;1607684;73;1578;-67
2024/03/31 01:07:38;;;;;;;;;;;20.30;44.20;;;;;;1611314;73;680;-68
2024/03/31 01:09:39;;;;;;;;;;;20.40;44.20;;;;;;1611483;72;666;-69
2024/03/31 01:11:42;;;;;;;;;;;20.30;44.20;;;;;;1620267;72;688;-70
2024/03/31 01:13:43;;;;;;;;;;;20.30;44.20;;;;;;1602425;72;787;-72
2024/03/31 01:15:45;;;;;;;;;;;20.40;44.30;;;;;;1614319;72;1148;-69
2024/03/31 01:17:47;;;;;;;;;;;20.30;44.30;;;;;;1603212;73;734;-68
2024/03/31 01:19:49;;;;;;;;;;;20.30;44.30;;;;;;1602879;73;1936;-70
2024/03/31 01:21:51;;;;;;;;;;;20.40;44.30;;;;;;1604787;73;706;-71
2024/03/31 01:23:56;;;;;;;;;;;20.40;44.40;;;;;;1605203;73;717;-70
2024/03/31 01:25:59;;;;;;;;;;;20.30;44.40;;;;;;1609658;73;1128;-69
2024/03/31 01:28:01;;;;;;;;;;;20.40;44.40;;;;;;1598384;72;670;-69
2024/03/31 01:30:03;;;;;;;;;;;20.40;44.50;;;;;;1608815;72;824;-70
2024/03/31 01:32:05;;;;;;;;;;;20.40;44.40;;;;;;1604165;72;764;-71
2024/03/31 01:34:07;;;;;;;;;;;20.30;44.50;;;;;;1606740;73;1555;-69
2024/03/31 01:36:08;;;;;;;;;;;20.30;44.50;;;;;;1611361;73;1122;-67
2024/03/31 01:38:13;;;;;;;;;;;20.30;44.50;;;;;;1609673;73;788;-68
2024/03/31 01:40:15;;;;;;;;;;;20.30;44.50;;;;;;1607022;73;1925;-70
2024/03/31 01:42:17;;;;;;;;;;;20.30;44.60;;;;;;1605466;73;772;-69
2024/03/31 01:44:20;;;;;;;;;;;20.30;44.60;;;;;;1608144;73;763;-70
2024/03/31 01:46:22;;;;;;;;;;;20.30;44.60;;;;;;1607637;72;1181;-74
2024/03/31 01:48:24;;;;;;;;;;;20.30;44.60;;;;;;1612698;73;1546;-72
2024/03/31 01:50:25;;;;;;;;;;;20.40;44.70;;;;;;1610919;73;740;-71
2024/03/31 01:52:27;;;;;;;;;;;20.40;44.70;;;;;;1602352;72;742;-71
2024/03/31 01:54:29;;;;;;;;;;;20.30;44.70;;;;;;1604384;73;715;-70
2024/03/31 01:56:31;;;;;;;;;;;20.30;44.70;;;;;;1600252;73;1156;-70
2024/03/31 01:58:33;;;;;;;;;;;20.30;44.70;;;;;;1602117;73;688;-70
2024/03/31 02:00:35;;;;;;;;;;;20.40;44.70;;;;;;1606677;73;1953;-70
2024/03/31 02:02:37;;;;;;;;;;;20.30;44.70;;;;;;1607145;73;1347;-71
2024/03/31 02:04:39;;;;;;;;;;;20.30;44.70;;;;;;1608206;72;743;-68
2024/03/31 02:06:42;;;;;;;;;;;20.30;44.70;;;;;;1612909;73;1155;-68
2024/03/31 02:08:44;;;;;;;;;;;20.40;44.80;;;;;;1605099;73;750;-69
2024/03/31 02:10:46;;;;;;;;;;;20.30;44.80;;;;;;1611668;73;711;-68
2024/03/31 02:12:48;;;;;;;;;;;20.30;44.80;;;;;;1605177;73;685;-69
2024/03/31 02:14:49;;;;;;;;;;;20.30;44.90;;;;;;1604007;73;718;-72
2024/03/31 02:16:51;;;;;;;;;;;20.30;44.80;;;;;;1594462;73;1524;-69
2024/03/31 02:18:53;;;;;;;;;;;20.30;44.90;;;;;;1613510;72;704;-69
2024/03/31 02:20:56;;;;;;;;;;;20.40;44.90;;;;;;1607656;73;1942;-69
2024/03/31 02:22:58;;;;;;;;;;;20.40;44.90;;;;;;1602276;72;731;-67
2024/03/31 02:24:59;;;;;;;;;;;20.30;45.00;;;;;;1601694;73;734;-69
2024/03/31 02:27:01;;;;;;;;;;;20.30;44.90;;;;;;1600578;73;1118;-68
2024/03/31 02:29:03;;;;;;;;;;;20.30;44.90;;;;;;1611914;73;688;-71
2024/03/31 02:31:05;;;;;;;;;;;20.30;44.90;;;;;;1606052;73;1156;-69
2024/03/31 02:33:07;;;;;;;;;;;20.30;45.00;;;;;;1612524;73;688;-69
2024/03/31 02:35:09;;;;;;;;;;;20.30;45.00;;;;;;1606307;73;754;-71
2024/03/31 02:37:11;;;;;;;;;;;20.30;45.00;;;;;;1607828;73;1146;-70
2024/03/31 02:39:13;;;;;;;;;;;20.30;45.00;;;;;;1611615;73;788;-70
2024/03/31 02:41:14;;;;;;;;;;;20.30;44.90;;;;;;1602789;73;1948;-68
2024/03/31 02:43:16;;;;;;;;;;;20.40;45.00;;;;;;1602658;73;728;-67
2024/03/31 02:45:18;;;;;;;;;;;20.30;45.00;;;;;;1595750;73;1584;-66
2024/03/31 02:47:20;;;;;;;;;;;20.30;44.90;;;;;;1601174;73;1188;-69
2024/03/31 02:49:22;;;;;;;;;;;20.30;45.00;;;;;;1606664;73;687;-70
2024/03/31 02:51:24;;;;;;;;;;;20.40;45.00;;;;;;1603164;73;755;-70
2024/03/31 02:53:26;;;;;;;;;;;20.30;45.00;;;;;;1606357;73;783;-68
2024/03/31 02:55:28;;;;;;;;;;;20.40;45.00;;;;;;1602822;73;736;-69
2024/03/31 02:57:30;;;;;;;;;;;20.30;45.00;;;;;;1610421;72;1114;-69
2024/03/31 02:59:31;;;;;;;;;;;20.30;45.00;;;;;;1603772;72;1530;-67
2024/03/31 03:01:34;;;;;;;;;;;20.30;45.00;;;;;;1609525;73;1933;-69
2024/03/31 03:03:36;;;;;;;;;;;20.30;45.00;;;;;;1602657;73;650;-68
2024/03/31 03:05:38;;;;;;;;;;;20.40;45.00;;;;;;1611191;73;1198;-67
2024/03/31 03:07:39;;;;;;;;;;;20.40;45.00;;;;;;1611961;73;748;-69
2024/03/31 03:09:41;;;;;;;;;;;20.30;45.00;;;;;;1610872;73;755;-69
2024/03/31 03:11:43;;;;;;;;;;;20.30;45.10;;;;;;1601216;72;796;-68
2024/03/31 03:13:45;;;;;;;;;;;20.30;45.00;;;;;;1604469;72;1545;-69
2024/03/31 03:15:47;;;;;;;;;;;20.30;45.10;;;;;;1605574;72;1088;-67
2024/03/31 03:17:50;;;;;;;;;;;20.30;45.10;;;;;;1605858;73;758;-72
2024/03/31 03:19:52;;;;;;;;;;;20.30;45.10;;;;;;1607537;73;794;-69
2024/03/31 03:21:54;;;;;;;;;;;20.30;45.10;;;;;;1605109;72;1947;-72
2024/03/31 03:23:56;;;;;;;;;;;20.30;45.10;;;;;;1603409;72;811;-69
2024/03/31 03:25:58;;;;;;;;;;;20.40;45.10;;;;;;1601521;73;1125;-70
2024/03/31 03:28:00;;;;;;;;;;;20.40;45.10;;;;;;1622737;72;1342;-72
2024/03/31 03:30:03;;;;;;;;;;;20.30;45.20;;;;;;1609186;73;685;-71
2024/03/31 03:32:05;;;;;;;;;;;20.30;45.10;;;;;;1599804;72;712;-69
2024/03/31 03:34:07;;;;;;;;;;;20.30;45.10;;;;;;1606737;72;677;-68
2024/03/31 03:36:09;;;;;;;;;;;20.30;45.10;;;;;;1608055;72;1149;-68
2024/03/31 03:38:11;;;;;;;;;;;20.40;45.10;;;;;;1605056;72;740;-69
2024/03/31 03:40:13;;;;;;;;;;;20.30;45.20;;;;;;1609850;73;1933;-69
2024/03/31 03:42:15;;;;;;;;;;;20.40;45.20;;;;;;1612991;73;716;-69
2024/03/31 03:44:17;;;;;;;;;;;20.30;45.20;;;;;;1600246;72;742;-69
2024/03/31 03:46:18;;;;;;;;;;;20.30;45.20;;;;;;1602006;73;1160;-69
2024/03/31 03:48:20;;;;;;;;;;;20.30;45.20;;;;;;1603558;73;801;-71
2024/03/31 03:50:22;;;;;;;;;;;20.30;45.20;;;;;;1612869;73;672;-70
2024/03/31 03:52:24;;;;;;;;;;;20.30;45.20;;;;;;1609352;73;695;-69
2024/03/31 03:54:26;;;;;;;;;;;20.30;45.30;;;;;;1601053;72;1544;-69
2024/03/31 03:56:28;;;;;;;;;;;20.40;45.20;;;;;;1602975;73;1126;-69
2024/03/31 03:58:30;;;;;;;;;;;20.30;45.20;;;;;;1609821;72;728;-70
2024/03/31 04:00:31;;;;;;;;;;;20.40;45.30;;;;;;1609400;72;1971;-68
2024/03/31 04:02:33;;;;;;;;;;;20.30;45.30;;;;;;1608862;72;680;-68
2024/03/31 04:04:35;;;;;;;;;;;20.30;45.30;;;;;;1608390;72;802;-72
2024/03/31 04:06:37;;;;;;;;;;;20.40;45.30;;;;;;1606557;72;1139;-69
2024/03/31 04:08:39;;;;;;;;;;;20.30;45.30;;;;;;1601858;73;1575;-69
2024/03/31 04:10:41;;;;;;;;;;;20.30;45.30;;;;;;1610428;73;656;-71
2024/03/31 04:12:43;;;;;;;;;;;20.30;45.40;;;;;;1606472;73;731;-69
2024/03/31 04:14:45;;;;;;;;;;;20.30;45.40;;;;;;1612986;73;709;-68
2024/03/31 04:16:47;;;;;;;;;;;20.30;45.40;;;;;;1606972;73;1160;-71
2024/03/31 04:18:50;;;;;;;;;;;20.30;45.40;;;;;;1605040;72;1109;-70
2024/03/31 04:20:52;;;;;;;;;;;20.30;45.40;;;;;;1608576;73;1935;-69
2024/03/31 04:22:54;;;;;;;;;;;20.30;45.50;;;;;;1606577;72;1539;-73
2024/03/31 04:24:56;;;;;;;;;;;20.30;45.40;;;;;;1612538;73;692;-69
2024/03/31 04:26:58;;;;;;;;;;;20.30;45.50;;;;;;1599618;72;1118;-70
2024/03/31 04:29:00;;;;;;;;;;;20.30;45.50;;;;;;1602809;72;807;-73
2024/03/31 04:31:03;;;;;;;;;;;20.30;45.50;;;;;;1607082;73;754;-68
2024/03/31 04:33:05;;;;;;;;;;;20.30;45.40;;;;;;1602642;73;689;-69
2024/03/31 04:35:06;;;;;;;;;;;20.40;45.40;;;;;;1607763;73;751;-68
2024/03/31 04:37:08;;;;;;;;;;;20.30;45.50;;;;;;1602893;72;1570;-68
2024/03/31 04:39:10;;;;;;;;;;;20.30;45.50;;;;;;1597614;73;747;-69
2024/03/31 04:41:12;;;;;;;;;;;20.30;45.50;;;;;;1605762;73;1932;-71
2024/03/31 04:43:14;;;;;;;;;;;20.30;45.50;;;;;;1600434;72;695;-71
2024/03/31 04:45:17;;;;;;;;;;;20.40;45.50;;;;;;1611898;73;757;-69
2024/03/31 04:47:19;;;;;;;;;;;20.40;45.50;;;;;;1605369;72;1156;-70
2024/03/31 04:49:20;;;;;;;;;;;20.30;45.50;;;;;;1600993;73;717;-72
2024/03/31 04:51:22;;;;;;;;;;;20.30;45.60;;;;;;1604296;73;1566;-69
2024/03/31 04:53:24;;;;;;;;;;;20.30;45.50;;;;;;1602095;72;713;-70
2024/03/31 04:55:26;;;;;;;;;;;20.30;45.50;;;;;;1606454;73;687;-69
2024/03/31 04:57:28;;;;;;;;;;;20.30;45.50;;;;;;1606863;73;1115;-69
2024/03/31 04:59:30;;;;;;;;;;;20.30;45.50;;;;;;1606829;73;683;-68
2024/03/31 05:01:32;;;;;;;;;;;20.30;45.60;;;;;;1605590;73;1943;-69
2024/03/31 05:03:34;;;;;;;;;;;20.30;45.50;;;;;;1613138;73;762;-69
2024/03/31 05:05:38;;;;;;;;;;;20.30;45.50;;;;;;1602204;72;1535;-71
2024/03/31 05:07:40;;;;;;;;;;;20.30;45.60;;;;;;1599044;72;803;-69
2024/03/31 05:09:42;;;;;;;;;;;20.40;45.60;;;;;;1594168;72;640;-70
2024/03/31 05:11:44;;;;;;;;;;;20.30;45.60;;;;;;1613163;72;773;-70
2024/03/31 05:13:46;;;;;;;;;;;20.30;45.60;;;;;;1603037;72;640;-69
2024/03/31 05:15:49;;;;;;;;;;;20.40;45.60;;;;;;1605465;72;1162;-70
2024/03/31 05:17:51;;;;;;;;;;;20.30;45.70;;;;;;1601115;73;1874;-70
2024/03/31 05:19:53;;;;;;;;;;;20.40;45.60;;;;;;1599449;72;1585;-69
2024/03/31 05:21:55;;;;;;;;;;;20.30;45.70;;;;;;1600004;72;1933;-70
2024/03/31 05:23:57;;;;;;;;;;;20.30;45.70;;;;;;1607013;73;696;-70
2024/03/31 05:25:59;;;;;;;;;;;20.30;45.70;;;;;;1599712;72;1138;-70
2024/03/31 05:28:01;;;;;;;;;;;20.40;45.70;;;;;;1598469;72;752;-71
2024/03/31 05:30:03;;;;;;;;;;;20.30;45.70;;;;;;1599569;72;734;-73
2024/03/31 05:32:05;;;;;;;;;;;20.30;45.70;;;;;;1599558;73;722;-71
2024/03/31 05:34:08;;;;;;;;;;;20.40;45.70;;;;;;1601935;73;1548;-70
2024/03/31 05:36:10;;;;;;;;;;;20.30;45.70;;;;;;1602306;73;1134;-69
2024/03/31 05:38:12;;;;;;;;;;;20.30;45.80;;;;;;1599914;73;673;-70
2024/03/31 05:40:14;;;;;;;;;;;20.30;45.80;;;;;;1596818;73;702;-72
2024/03/31 05:42:16;;;;;;;;;;;20.30;45.70;;;;;;1607713;73;1936;-70
2024/03/31 05:44:18;;;;;;;;;;;20.30;45.70;;;;;;1604311;73;753;-70
2024/03/31 05:46:21;;;;;;;;;;;20.30;45.80;;;;;;1603809;72;1176;-70
2024/03/31 05:48:23;;;;;;;;;;;20.30;45.80;;;;;;1601484;73;1569;-70
2024/03/31 05:50:25;;;;;;;;;;;20.30;45.80;;;;;;1604832;73;703;-70
2024/03/31 05:52:27;;;;;;;;;;;20.40;45.80;;;;;;1603768;73;689;-72
2024/03/31 05:54:29;;;;;;;;;;;20.30;45.80;;;;;;1600465;73;724;-71
2024/03/31 05:56:31;;;;;;;;;;;20.30;45.80;;;;;;1603606;73;1147;-70
2024/03/31 05:58:33;;;;;;;;;;;20.30;45.80;;;;;;1600913;72;714;-71
2024/03/31 06:00:34;;;;;;;;;;;20.40;45.80;;;;;;1601556;73;693;-71
2024/03/31 06:02:36;;;;;;;;;;;20.30;45.80;;;;;;1598602;72;1942;-72
2024/03/31 06:04:38;;;;;;;;;;;20.30;45.80;;;;;;1601866;73;660;-71
2024/03/31 06:06:40;;;;;;;;;;;20.30;45.80;;;;;;1601542;73;1132;-71
2024/03/31 06:08:42;;;;;;;;;;;20.90;46.20;;;;;;1598076;73;704;-71
2024/03/31 06:10:44;;;;;;;;;;;21.00;46.20;;;;;;1608547;72;755;-68
2024/03/31 06:12:46;;;;;;;;;;;20.40;45.80;;;;;;1601792;73;726;-70
2024/03/31 06:14:48;;;;;;;;;;;20.40;45.90;;;;;;1600780;73;699;-70
2024/03/31 06:16:49;;;;;;;;;;;20.30;45.90;;;;;;1603585;72;1347;-70
2024/03/31 06:18:51;;;;;;;;;;;20.30;45.90;;;;;;1606016;72;697;-69
2024/03/31 06:20:53;;;;;;;;;;;20.30;46.00;;;;;;1604716;73;708;-66
2024/03/31 06:22:55;;;;;;;;;;;20.30;46.00;;;;;;1605340;73;1949;-70
2024/03/31 06:24:57;;;;;;;;;;;20.40;46.00;;;;;;1608596;73;724;-69
2024/03/31 06:26:59;;;;;;;;;;;20.30;46.00;;;;;;1599647;73;1135;-70
2024/03/31 06:29:01;;;;;;;;;;;20.30;46.00;;;;;;1598849;73;1534;-70
2024/03/31 06:31:04;;;;;;;;;;;20.40;46.00;;;;;;1600006;73;793;-69
2024/03/31 06:33:06;;;;;;;;;;;20.30;46.00;;;;;;1595292;73;1091;-70
2024/03/31 06:35:08;;;;;;;;;;;20.30;46.00;;;;;;1599908;72;705;-68
2024/03/31 06:37:11;;;;;;;;;;;20.30;46.00;;;;;;1600599;73;1118;-69
2024/03/31 06:39:13;;;;;;;;;;;20.40;46.00;;;;;;1597068;73;654;-68
2024/03/31 06:41:15;;;;;;;;;;;20.30;46.00;;;;;;1598618;73;1936;-69
2024/03/31 06:43:16;;;;;;;;;;;20.40;46.10;;;;;;1595981;72;1335;-68
2024/03/31 06:45:18;;;;;;;;;;;20.40;46.10;;;;;;1600970;73;780;-72
2024/03/31 06:47:20;;;;;;;;;;;20.30;46.10;;;;;;1606207;73;1171;-70
2024/03/31 06:49:22;;;;;;;;;;;20.80;46.30;;;;;;1607489;73;730;-70
2024/03/31 06:51:24;;;;;;;;;;;20.30;46.10;;;;;;1609195;72;613;-71
2024/03/31 06:53:26;;;;;;;;;;;20.60;46.20;;;;;;1609930;72;723;-67
2024/03/31 06:55:28;;;;;;;;;;;20.40;46.10;;;;;;1605179;72;720;-69
2024/03/31 06:57:30;;;;;;;;;;;20.30;46.20;;;;;;1596331;72;1319;-69
2024/03/31 06:59:32;;;;;;;;;;;20.40;46.20;;;;;;1601882;73;645;-71
2024/03/31 07:01:34;;;;;;;;;;;20.30;46.20;;;;;;1600055;72;1943;-71
2024/03/31 07:03:36;;;;;;;;;;;20.30;46.20;;;;;;1598180;73;664;-70
2024/03/31 07:05:38;;;;;;;;;;;20.40;46.20;;;;;;1608013;72;613;-72
2024/03/31 07:07:40;;;;;;;;;;;20.40;46.20;;;;;;1594715;73;746;-70
2024/03/31 07:09:42;;;;;;;;;;;20.40;46.30;;;;;;1602113;73;743;-69
2024/03/31 07:11:44;;;;;;;;;;;20.30;46.20;;;;;;1602245;73;1307;-70
2024/03/31 07:13:46;;;;;;;;;;;20.40;46.30;;;;;;1616435;73;734;-69
2024/03/31 07:15:48;;;;;;;;;;;20.40;46.30;;;;;;1601661;73;1146;-69
2024/03/31 07:17:50;;;;;;;;;;;20.30;46.30;;;;;;1605307;73;691;-70
2024/03/31 07:19:52;;;;;;;;;;;20.30;46.30;;;;;;1600909;73;713;-68
2024/03/31 07:21:54;;;;;;;;;;;20.30;46.20;;;;;;1596806;72;1916;-70
2024/03/31 07:23:56;;;;;;;;;;;20.30;46.30;;;;;;1605078;72;722;-67
2024/03/31 07:26:00;;;;;;;;;;;20.30;46.20;;;;;;1594294;73;1346;-70
2024/03/31 07:28:01;;;;;;;;;;;20.30;46.20;;;;;;1599047;72;703;-69
2024/03/31 07:30:03;;;;;;;;;;;20.30;46.20;;;;;;1601889;72;678;-69
2024/03/31 07:32:05;;;;;;;;;;;20.30;46.30;;;;;;1609791;73;880;-70
2024/03/31 07:34:07;;;;;;;;;;;20.30;46.20;;;;;;1605312;73;717;-70
2024/03/31 07:36:09;;;;;;;;;;;20.30;46.30;;;;;;1602703;73;1143;-69
2024/03/31 07:38:11;;;;;;;;;;;20.30;46.30;;;;;;1606388;73;679;-69
2024/03/31 07:40:13;;;;;;;;;;;20.40;46.30;;;;;;1589430;72;1530;-70
2024/03/31 07:42:15;;;;;;;;;;;20.30;46.30;;;;;;1605161;73;1932;-70
2024/03/31 07:44:17;;;;;;;;;;;20.40;46.30;;;;;;1600040;73;702;-71
2024/03/31 07:46:19;;;;;;;;;;;20.30;46.30;;;;;;1599968;72;1133;-72
2024/03/31 07:48:21;;;;;;;;;;;20.30;46.30;;;;;;1602655;73;649;-72
2024/03/31 07:50:23;;;;;;;;;;;20.40;46.40;;;;;;1599987;73;733;-70
2024/03/31 07:52:25;;;;;;;;;;;20.40;46.40;;;;;;1603860;73;630;-74
2024/03/31 07:54:27;;;;;;;;;;;20.30;46.40;;;;;;1601472;73;1508;-70
2024/03/31 07:56:29;;;;;;;;;;;20.30;46.40;;;;;;1604866;73;1193;-70
2024/03/31 07:58:30;;;;;;;;;;;20.30;46.50;;;;;;1602538;72;654;-69
2024/03/31 08:00:33;;;;;;;;;;;20.30;46.50;;;;;;1599055;73;717;-70
2024/03/31 08:02:35;;;;;;;;;;;20.30;46.50;;;;;;1600935;73;1928;-69
2024/03/31 08:04:37;;;;;;;;;;;20.40;46.50;;;;;;1600919;72;720;-68
2024/03/31 08:06:38;;;;;;;;;;;20.40;46.50;;;;;;1610465;72;1110;-71
2024/03/31 08:08:40;;;;;;;;;;;20.30;46.50;;;;;;1607688;72;1434;-71
2024/03/31 08:10:42;;;;;;;;;;;20.30;46.50;;;;;;1608546;72;676;-72
2024/03/31 08:12:44;;;;;;;;;;;20.30;46.70;;;;;;1606902;73;729;-73
2024/03/31 08:14:47;;;;;;;;;;;20.30;46.60;;;;;;1600547;73;740;-69
2024/03/31 08:16:49;;;;;;;;;;;20.40;46.50;;;;;;1606759;73;1088;-71
2024/03/31 08:18:52;;;;;;;;;;;20.30;46.30;;;;;;1608373;73;671;-69
2024/03/31 08:20:54;;;;;;;;;;;20.40;46.10;;;;;;1606321;73;700;-70
2024/03/31 08:22:56;;;;;;;;;;;20.30;45.80;;;;;;1603191;72;1945;-68
2024/03/31 08:24:58;;;;;;;;;;;20.40;45.60;;;;;;1612352;73;680;-70
2024/03/31 08:26:59;;;;;;;;;;;20.30;45.30;;;;;;1601913;73;1130;-70
2024/03/31 08:29:01;;;;;;;;;;;20.30;45.30;;;;;;1603624;73;758;-69
2024/03/31 08:31:03;;;;;;;;;;;20.30;45.40;;;;;;1607165;72;747;-70
2024/03/31 08:33:05;;;;;;;;;;;20.20;45.00;;;;;;1609718;73;758;-72
2024/03/31 08:35:07;;;;;;;;;;;20.20;44.90;;;;;;1599985;72;797;-71
2024/03/31 08:37:09;;;;;;;;;;;20.20;44.60;;;;;;1612977;72;1548;-70
2024/03/31 08:39:11;;;;;;;;;;;20.20;44.70;;;;;;1605703;73;670;-71
2024/03/31 08:41:14;;;;;;;;;;;20.20;44.70;;;;;;1606121;72;694;-71
2024/03/31 08:43:18;;;;;;;;;;;20.30;44.70;;;;;;1608033;72;1934;-72
2024/03/31 08:45:20;;;;;;;;;;;20.20;44.40;;;;;;1603702;73;1050;-70
2024/03/31 08:47:27;;;;;;;;;;;20.10;44.40;;;;;;1606225;73;1125;-69
2024/03/31 08:49:28;;;;;;;;;;;20.20;44.30;;;;;;1607728;72;1055;-69
2024/03/31 08:51:30;;;;;;;;;;;20.20;44.20;;;;;;1611965;73;1548;-71
2024/03/31 08:53:35;;;;;;;;;;;20.10;44.20;;;;;;1607408;73;911;-70
2024/03/31 08:55:37;;;;;;;;;;;20.10;44.20;;;;;;1608150;73;675;-70
2024/03/31 08:57:39;;;;;;;;;;;20.10;44.40;;;;;;1596463;72;1204;-71
2024/03/31 08:59:40;;;;;;;;;;;20.10;44.40;;;;;;1603744;73;872;-70
2024/03/31 09:01:42;;;;;;;;;;;20.10;44.40;;;;;;1612314;72;806;-69
2024/03/31 09:03:44;;;;;;;;;;;20.10;44.60;;;;;;1604934;73;1923;-69
2024/03/31 09:05:46;;;;;;;;;;;20.10;44.40;;;;;;1601311;73;1123;-71
2024/03/31 09:07:48;;;;;;;;;;;20.10;44.40;;;;;;1602926;72;737;-70
2024/03/31 09:09:50;;;;;;;;;;;20.10;44.30;;;;;;1600791;73;793;-70
2024/03/31 09:11:52;;;;;;;;;;;20.00;44.10;;;;;;1575013;74;1152;-70
2024/03/31 09:13:54;;;;;;;;;;;20.10;44.30;;;;;;1605240;73;662;-69
2024/03/31 09:15:56;;;;;;;;;;;20.00;43.90;;;;;;1605521;73;1153;-70
2024/03/31 09:17:58;;;;;;;;;;;20.00;44.00;;;;;;1600171;73;1583;-71
2024/03/31 09:20:01;;;;;;;;;;;20.00;44.10;;;;;;1607162;73;775;-69
2024/03/31 09:22:03;;;;;;;;;;;20.00;43.90;;;;;;1608776;73;682;-71
2024/03/31 09:24:05;;;;;;;;;;;20.00;43.50;;;;;;1605697;73;1936;-72
2024/03/31 09:26:07;;;;;;;;;;;19.90;43.10;;;;;;1605704;72;1119;-72
2024/03/31 09:28:09;;;;;;;;;;;19.90;43.30;;;;;;1610477;73;651;-70
2024/03/31 09:30:11;;;;;;;;;;;19.90;43.40;;;;;;1601453;72;694;-69
2024/03/31 09:32:14;;;;;;;;;;;19.90;43.50;;;;;;1602268;73;1513;-68
2024/03/31 09:34:16;;;;;;;;;;;19.90;43.60;;;;;;1601850;73;752;-67
2024/03/31 09:36:18;;;;;;;;;;;19.90;43.60;;;;;;1615964;73;1090;-68
2024/03/31 09:38:20;;;;;;;;;;;19.90;43.50;;;;;;1603190;72;695;-71
2024/03/31 09:40:22;;;;;;;;;;;19.80;43.10;;;;;;1611414;73;752;-69
2024/03/31 09:42:25;;;;;;;;;;;19.90;43.10;;;;;;1606419;73;1940;-69
2024/03/31 09:44:27;;;;;;;;;;;19.90;43.20;;;;;;1614707;73;729;-70
2024/03/31 09:46:29;;;;;;;;;;;19.80;43.20;;;;;;1607950;73;1561;-70
2024/03/31 09:48:31;;;;;;;;;;;19.90;43.40;;;;;;1570106;74;787;-69
2024/03/31 09:50:35;;;;;;;;;;;19.90;43.40;;;;;;1605587;73;777;-67
2024/03/31 09:52:39;;;;;;;;;;;20.00;43.60;;;;;;1609309;73;777;-72
2024/03/31 09:54:44;;;;;;;;;;;19.80;43.40;;;;;;1598213;72;780;-68
2024/03/31 09:56:48;;;;;;;;;;;19.90;43.40;;;;;;1605574;73;1167;-68
2024/03/31 09:58:50;;;;;;;;;;;19.90;43.30;;;;;;1609049;73;762;-68
2024/03/31 10:00:52;;;;;;;;;;;19.90;43.40;;;;;;1602223;73;1597;-67
2024/03/31 10:02:54;;;;;;;;;;;19.90;43.40;;;;;;1610951;73;1912;-67
2024/03/31 10:05:01;;;;;;;;;;;19.80;43.10;;;;;;1608840;73;747;-70
2024/03/31 10:07:03;;;;;;;;;;;19.80;43.40;;;;;;1595366;72;1761;-68
2024/03/31 10:09:05;;;;;;;;;;;19.90;43.60;;;;;;1604328;72;788;-67
2024/03/31 10:11:07;;;;;;;;;;;20.00;43.60;;;;;;1604419;73;819;-67
2024/03/31 10:13:09;;;;;;;;;;;19.80;43.60;;;;;;1603167;72;687;-70
2024/03/31 10:15:10;;;;;;;;;;;19.90;43.80;;;;;;1603059;72;1320;-68
2024/03/31 10:17:12;;;;;;;;;;;19.90;43.80;;;;;;1608584;73;1157;-72
2024/03/31 10:19:16;;;;;;;;;;;19.80;43.70;;;;;;1603002;73;765;-67
2024/03/31 10:21:18;;;;;;;;;;;19.90;43.90;;;;;;1606695;73;1132;-68
2024/03/31 10:23:20;;;;;;;;;;;19.90;44.00;;;;;;1606509;73;1928;-67
2024/03/31 10:25:24;;;;;;;;;;;19.90;44.00;;;;;;1599559;73;760;-65
2024/03/31 10:27:26;;;;;;;;;;;19.90;44.10;;;;;;1602346;72;1142;-68
2024/03/31 10:29:28;;;;;;;;;;;20.00;44.20;;;;;;1605025;72;1559;-70
2024/03/31 10:31:30;;;;;;;;;;;20.00;44.10;;;;;;1604839;73;641;-68
2024/03/31 10:33:31;;;;;;;;;;;19.90;44.10;;;;;;1600855;73;717;-70
2024/03/31 10:35:33;;;;;;;;;;;19.90;44.00;;;;;;1602755;73;652;-69
2024/03/31 10:37:35;;;;;;;;;;;20.00;43.90;;;;;;1604398;73;1106;-70
2024/03/31 10:39:37;;;;;;;;;;;19.90;43.90;;;;;;1597029;72;695;-65
2024/03/31 10:41:39;;;;;;;;;;;20.00;44.10;;;;;;1604743;73;734;-69
2024/03/31 10:43:41;;;;;;;;;;;20.00;44.20;;;;;;1606481;73;1938;-68
2024/03/31 10:45:44;;;;;;;;;;;20.00;44.20;;;;;;1603777;72;1143;-67
2024/03/31 10:47:46;;;;;;;;;;;20.00;44.20;;;;;;1609344;73;762;-70
2024/03/31 10:49:49;;;;;;;;;;;20.00;44.20;;;;;;1608898;73;818;-70
2024/03/31 10:51:51;;;;;;;;;;;20.00;44.30;;;;;;1607582;73;1911;-72
2024/03/31 10:53:53;;;;;;;;;;;20.10;44.40;;;;;;1619999;73;699;-69
2024/03/31 10:55:56;;;;;;;;;;;20.00;44.40;;;;;;1605971;73;1214;-71
2024/03/31 10:58:02;;;;;;;;;;;20.10;44.60;;;;;;1606018;73;1364;-72
2024/03/31 11:00:03;;;;;;;;;;;20.10;44.40;;;;;;1602739;72;1355;-71
2024/03/31 11:02:11;;;;;;;;;;;20.10;44.50;;;;;;1602363;73;691;-72
2024/03/31 11:04:19;;;;;;;;;;;20.10;44.60;;;;;;1607569;73;1900;-70
2024/03/31 11:06:21;;;;;;;;;;;20.10;44.60;;;;;;1603688;73;1162;-72
2024/03/31 11:08:23;;;;;;;;;;;20.10;44.70;;;;;;1603024;73;737;-72
2024/03/31 11:10:25;;;;;;;;;;;20.10;44.80;;;;;;1605073;73;1577;-70
2024/03/31 11:12:27;;;;;;;;;;;20.20;44.80;;;;;;1603194;73;675;-70
2024/03/31 11:14:29;;;;;;;;;;;20.20;44.80;;;;;;1601793;73;622;-71
2024/03/31 11:16:31;;;;;;;;;;;20.10;44.90;;;;;;1608595;73;1121;-70
2024/03/31 11:18:33;;;;;;;;;;;20.20;44.90;;;;;;1599372;73;695;-69
2024/03/31 11:20:36;;;;;;;;;;;20.20;44.90;;;;;;1603723;73;770;-70
2024/03/31 11:22:38;;;;;;;;;;;20.10;45.00;;;;;;1603934;72;1651;-69
2024/03/31 11:24:40;;;;;;;;;;;20.20;45.00;;;;;;1601616;72;1920;-68
2024/03/31 11:26:42;;;;;;;;;;;20.20;45.00;;;;;;1608439;73;1142;-68
2024/03/31 11:28:44;;;;;;;;;;;20.20;45.00;;;;;;1602553;72;721;-69
2024/03/31 11:30:46;;;;;;;;;;;20.20;45.00;;;;;;1596109;72;674;-72
2024/03/31 11:32:48;;;;;;;;;;;20.20;45.00;;;;;;1615133;72;746;-70
2024/03/31 11:34:49;;;;;;;;;;;20.20;45.00;;;;;;1599891;72;793;-71
2024/03/31 11:36:51;;;;;;;;;;;20.20;45.00;;;;;;1606480;72;1151;-70
2024/03/31 11:38:53;;;;;;;;;;;20.20;45.00;;;;;;1606636;73;1295;-70
2024/03/31 11:40:55;;;;;;;;;;;20.80;45.40;;;;;;1610208;73;712;-74
2024/03/31 11:42:57;;;;;;;;;;;20.30;45.20;;;;;;1606145;73;805;-72
2024/03/31 11:44:59;;;;;;;;;;;20.30;45.20;;;;;;1608277;72;800;-69
2024/03/31 11:47:01;;;;;;;;;;;20.30;45.20;;;;;;1608862;73;1190;-73
2024/03/31 11:49:03;;;;;;;;;;;20.20;45.20;;;;;;1611893;73;793;-69
2024/03/31 11:51:05;;;;;;;;;;;20.30;45.20;;;;;;1615947;73;793;-70
2024/03/31 11:53:07;;;;;;;;;;;20.20;45.20;;;;;;1599745;73;1597;-70
2024/03/31 11:55:09;;;;;;;;;;;20.30;45.30;;;;;;1610266;73;719;-70
2024/03/31 11:57:11;;;;;;;;;;;20.30;45.30;;;;;;1595897;73;1186;-70
2024/03/31 11:59:15;;;;;;;;;;;20.30;45.30;;;;;;1611878;72;801;-70
2024/03/31 12:01:21;;;;;;;;;;;20.30;45.30;;;;;;1606209;73;1807;-69
2024/03/31 12:03:23;;;;;;;;;;;20.30;45.30;;;;;;1602883;73;1903;-71
2024/03/31 12:05:25;;;;;;;;;;;20.30;45.30;;;;;;1604509;73;743;-70
2024/03/31 12:07:27;;;;;;;;;;;20.30;45.30;;;;;;1603939;72;1573;-70